sensor_id;sensor_type;location;lat;lon;timestamp;pressure;altitude;pressure_sealevel;temperature;humidity
10079;BME280;5078;42.544;22.966;2023-02-01T00:00:14;93978.91;;;0.72;100.00
10079;BME280;5078;42.544;22.966;2023-02-01T00:02:42;93979.13;;;0.69;100.00
10079;BME280;5078;42.544;22.966;2023-02-01T00:05:09;93977.91;;;0.61;100.00
10079;BME280;5078;42.544;22.966;2023-02-01T00:07:37;93980.34;;;0.76;100.00
10079;BME280;5078;42.544;22.966;2023-02-01T00:10:05;93989.31;;;0.60;100.00
10079;BME280;5078;42.544;22.966;2023-02-01T00:12:32;93986.28;;;0.78;100.00
10079;BME280;5078;42.544;22.966;2023-02-01T00:14:59;93987.53;;;0.61;100.00
10079;BME280;5078;42.544;22.966;2023-02-01T00:17:25;93982.31;;;0.61;100.00
10079;BME280;5078;42.544;22.966;2023-02-01T00:19:53;93987.06;;;0.67;100.00
10079;BME280;5078;42.544;22.966;2023-02-01T00:22:20;93989.06;;;0.63;100.00
10079;BME280;5078;42.544;22.966;2023-02-01T00:24:47;93981.88;;;0.78;100.00
10079;BME280;5078;42.544;22.966;2023-02-01T00:27:14;93985.91;;;0.71;100.00
10079;BME280;5078;42.544;22.966;2023-02-01T00:29:43;93990.78;;;0.76;100.00
10079;BME280;5078;42.544;22.966;2023-02-01T00:32:10;93977.88;;;0.50;100.00
10079;BME280;5078;42.544;22.966;2023-02-01T00:34:37;93981.59;;;0.35;100.00
10079;BME280;5078;42.544;22.966;2023-02-01T00:37:05;93976.56;;;0.20;100.00
10079;BME280;5078;42.544;22.966;2023-02-01T00:39:32;93968.81;;;-0.05;100.00
10079;BME280;5078;42.544;22.966;2023-02-01T00:42:00;93976.72;;;-0.31;100.00
10079;BME280;5078;42.544;22.966;2023-02-01T00:44:27;93974.91;;;-0.54;100.00
10079;BME280;5078;42.544;22.966;2023-02-01T00:46:58;93967.28;;;-0.45;100.00
10079;BME280;5078;42.544;22.966;2023-02-01T00:49:25;93958.59;;;-0.45;100.00
10079;BME280;5078;42.544;22.966;2023-02-01T00:51:52;93969.94;;;-0.33;100.00
10079;BME280;5078;42.544;22.966;2023-02-01T00:54:20;93972.88;;;-0.38;100.00
10079;BME280;5078;42.544;22.966;2023-02-01T00:56:47;93975.19;;;-0.46;100.00
10079;BME280;5078;42.544;22.966;2023-02-01T00:59:13;93969.47;;;-0.51;100.00
10079;BME280;5078;42.544;22.966;2023-02-01T01:01:40;93970.19;;;-0.49;100.00
10079;BME280;5078;42.544;22.966;2023-02-01T01:04:07;93971.34;;;-0.53;100.00
10079;BME280;5078;42.544;22.966;2023-02-01T01:06:34;93966.06;;;-0.64;100.00
10079;BME280;5078;42.544;22.966;2023-02-01T01:09:04;93962.09;;;-0.70;100.00
10079;BME280;5078;42.544;22.966;2023-02-01T01:11:34;93949.81;;;-0.81;100.00
10079;BME280;5078;42.544;22.966;2023-02-01T01:14:02;93958.44;;;-0.68;100.00
10079;BME280;5078;42.544;22.966;2023-02-01T01:16:31;93968.34;;;-0.73;100.00
10079;BME280;5078;42.544;22.966;2023-02-01T01:18:58;93932.94;;;-0.75;100.00
10079;BME280;5078;42.544;22.966;2023-02-01T01:21:25;93960.38;;;-0.46;100.00
10079;BME280;5078;42.544;22.966;2023-02-01T01:23:52;93953.25;;;-0.55;100.00
10079;BME280;5078;42.544;22.966;2023-02-01T01:26:21;93967.31;;;-0.57;100.00
10079;BME280;5078;42.544;22.966;2023-02-01T01:28:49;93965.72;;;-0.73;100.00
10079;BME280;5078;42.544;22.966;2023-02-01T01:31:18;93967.75;;;-0.89;100.00
10079;BME280;5078;42.544;22.966;2023-02-01T01:33:48;93977.19;;;-0.88;100.00
10079;BME280;5078;42.544;22.966;2023-02-01T01:36:15;93981.16;;;-0.95;100.00
10079;BME280;5078;42.544;22.966;2023-02-01T01:38:43;93984.59;;;-0.82;100.00
10079;BME280;5078;42.544;22.966;2023-02-01T01:41:13;93987.00;;;-0.92;100.00
10079;BME280;5078;42.544;22.966;2023-02-01T01:43:56;93978.16;;;-0.89;100.00
10079;BME280;5078;42.544;22.966;2023-02-01T01:46:24;93975.53;;;-1.15;100.00
10079;BME280;5078;42.544;22.966;2023-02-01T01:48:56;93983.53;;;-1.05;100.00
10079;BME280;5078;42.544;22.966;2023-02-01T01:51:24;93982.47;;;-1.28;100.00
10079;BME280;5078;42.544;22.966;2023-02-01T01:53:58;93985.38;;;-1.33;100.00
10079;BME280;5078;42.544;22.966;2023-02-01T01:56:27;93988.31;;;-1.37;100.00
10079;BME280;5078;42.544;22.966;2023-02-01T01:58:56;93983.44;;;-1.29;100.00
10079;BME280;5078;42.544;22.966;2023-02-01T02:01:23;93993.31;;;-1.34;100.00
10079;BME280;5078;42.544;22.966;2023-02-01T02:03:51;93985.19;;;-1.29;100.00
10079;BME280;5078;42.544;22.966;2023-02-01T02:06:27;93974.16;;;-1.33;100.00
10079;BME280;5078;42.544;22.966;2023-02-01T02:08:57;93979.59;;;-1.11;100.00
10079;BME280;5078;42.544;22.966;2023-02-01T02:11:23;93982.19;;;-0.98;100.00
10079;BME280;5078;42.544;22.966;2023-02-01T02:13:51;93987.22;;;-0.82;100.00
10079;BME280;5078;42.544;22.966;2023-02-01T02:16:28;93985.66;;;-0.84;100.00
10079;BME280;5078;42.544;22.966;2023-02-01T02:22:03;93986.78;;;-0.76;100.00
10079;BME280;5078;42.544;22.966;2023-02-01T02:24:55;93984.59;;;-0.69;100.00
10079;BME280;5078;42.544;22.966;2023-02-01T02:27:29;93985.53;;;-0.83;100.00
10079;BME280;5078;42.544;22.966;2023-02-01T02:33:53;93995.16;;;-1.36;100.00
10079;BME280;5078;42.544;22.966;2023-02-01T02:36:31;93988.41;;;-1.26;100.00
10079;BME280;5078;42.544;22.966;2023-02-01T02:39:07;93995.41;;;-1.14;100.00
10079;BME280;5078;42.544;22.966;2023-02-01T02:41:44;93998.53;;;-1.09;100.00
10079;BME280;5078;42.544;22.966;2023-02-01T02:44:35;93997.19;;;-1.14;100.00
10079;BME280;5078;42.544;22.966;2023-02-01T02:47:31;93998.09;;;-1.02;100.00
10079;BME280;5078;42.544;22.966;2023-02-01T02:50:09;94001.06;;;-0.94;100.00
10079;BME280;5078;42.544;22.966;2023-02-01T02:52:59;94001.97;;;-0.95;100.00
10079;BME280;5078;42.544;22.966;2023-02-01T02:55:52;93982.91;;;-0.83;100.00
10079;BME280;5078;42.544;22.966;2023-02-01T02:58:36;93999.56;;;-0.73;100.00
10079;BME280;5078;42.544;22.966;2023-02-01T03:01:21;94008.56;;;-0.77;100.00
10079;BME280;5078;42.544;22.966;2023-02-01T03:04:05;94010.00;;;-0.60;100.00
10079;BME280;5078;42.544;22.966;2023-02-01T03:06:36;94015.28;;;-0.49;100.00
10079;BME280;5078;42.544;22.966;2023-02-01T03:09:09;94018.13;;;-0.64;100.00
10079;BME280;5078;42.544;22.966;2023-02-01T03:11:37;94025.09;;;-0.52;100.00
10079;BME280;5078;42.544;22.966;2023-02-01T03:14:25;94025.09;;;-0.65;100.00
10079;BME280;5078;42.544;22.966;2023-02-01T03:16:59;94034.38;;;-0.74;100.00
10079;BME280;5078;42.544;22.966;2023-02-01T03:19:29;94032.81;;;-0.89;100.00
10079;BME280;5078;42.544;22.966;2023-02-01T03:22:02;94032.50;;;-0.59;100.00
10079;BME280;5078;42.544;22.966;2023-02-01T03:24:32;94023.63;;;-0.56;100.00
10079;BME280;5078;42.544;22.966;2023-02-01T03:27:05;94012.28;;;-0.55;100.00
10079;BME280;5078;42.544;22.966;2023-02-01T03:29:38;94022.34;;;-0.38;100.00
10079;BME280;5078;42.544;22.966;2023-02-01T03:32:07;94018.16;;;-0.28;100.00
10079;BME280;5078;42.544;22.966;2023-02-01T03:34:35;94028.31;;;-0.36;100.00
10079;BME280;5078;42.544;22.966;2023-02-01T03:37:05;94030.06;;;-0.24;100.00
10079;BME280;5078;42.544;22.966;2023-02-01T03:39:36;94023.19;;;-0.50;100.00
10079;BME280;5078;42.544;22.966;2023-02-01T03:42:08;94029.56;;;-0.41;100.00
10079;BME280;5078;42.544;22.966;2023-02-01T03:44:39;94025.47;;;-0.20;100.00
10079;BME280;5078;42.544;22.966;2023-02-01T03:47:10;94023.72;;;-0.32;100.00
10079;BME280;5078;42.544;22.966;2023-02-01T03:49:41;94005.44;;;-0.07;100.00
10079;BME280;5078;42.544;22.966;2023-02-01T03:52:13;94011.69;;;0.28;100.00
10079;BME280;5078;42.544;22.966;2023-02-01T03:54:42;94008.31;;;0.74;100.00
10079;BME280;5078;42.544;22.966;2023-02-01T03:57:13;94007.72;;;1.05;100.00
10079;BME280;5078;42.544;22.966;2023-02-01T03:59:41;94019.41;;;0.53;97.81
10079;BME280;5078;42.544;22.966;2023-02-01T04:02:08;94023.81;;;0.40;99.56
10079;BME280;5078;42.544;22.966;2023-02-01T04:04:36;94001.56;;;0.47;100.00
10079;BME280;5078;42.544;22.966;2023-02-01T04:07:03;94019.72;;;0.49;100.00
10079;BME280;5078;42.544;22.966;2023-02-01T04:09:31;93987.84;;;-0.16;100.00
10079;BME280;5078;42.544;22.966;2023-02-01T04:11:58;94010.19;;;0.36;100.00
10079;BME280;5078;42.544;22.966;2023-02-01T04:14:25;94014.28;;;0.52;98.29
10079;BME280;5078;42.544;22.966;2023-02-01T04:16:51;94017.22;;;0.47;98.02
10079;BME280;5078;42.544;22.966;2023-02-01T04:19:18;94011.09;;;0.59;96.55
10079;BME280;5078;42.544;22.966;2023-02-01T04:21:45;94020.16;;;0.67;95.06
10079;BME280;5078;42.544;22.966;2023-02-01T04:24:12;94030.72;;;0.65;94.84
10079;BME280;5078;42.544;22.966;2023-02-01T04:26:40;94026.88;;;0.58;95.39
10079;BME280;5078;42.544;22.966;2023-02-01T04:29:08;94025.91;;;0.48;96.31
10079;BME280;5078;42.544;22.966;2023-02-01T04:31:35;94040.69;;;0.47;95.95
10079;BME280;5078;42.544;22.966;2023-02-01T04:34:02;94037.59;;;0.18;96.73
10079;BME280;5078;42.544;22.966;2023-02-01T04:36:28;94039.88;;;0.10;98.33
10079;BME280;5078;42.544;22.966;2023-02-01T04:38:55;94034.97;;;0.18;98.01
10079;BME280;5078;42.544;22.966;2023-02-01T04:41:22;94022.34;;;0.12;99.21
10079;BME280;5078;42.544;22.966;2023-02-01T04:43:50;94022.34;;;-0.12;99.82
10079;BME280;5078;42.544;22.966;2023-02-01T04:46:17;94024.03;;;-0.37;100.00
10079;BME280;5078;42.544;22.966;2023-02-01T04:48:44;94043.72;;;-0.46;100.00
10079;BME280;5078;42.544;22.966;2023-02-01T04:51:11;94046.97;;;-0.42;100.00
10079;BME280;5078;42.544;22.966;2023-02-01T04:53:38;94046.75;;;-0.52;100.00
10079;BME280;5078;42.544;22.966;2023-02-01T04:56:06;94044.56;;;-0.83;100.00
10079;BME280;5078;42.544;22.966;2023-02-01T04:58:33;94052.69;;;-0.75;100.00
10079;BME280;5078;42.544;22.966;2023-02-01T05:01:03;94052.28;;;-0.82;100.00
10079;BME280;5078;42.544;22.966;2023-02-01T05:03:30;94058.22;;;-0.80;100.00
10079;BME280;5078;42.544;22.966;2023-02-01T05:05:57;94052.28;;;-0.56;100.00
10079;BME280;5078;42.544;22.966;2023-02-01T05:08:24;94060.81;;;-0.67;100.00
10079;BME280;5078;42.544;22.966;2023-02-01T05:10:52;94069.97;;;-0.49;100.00
10079;BME280;5078;42.544;22.966;2023-02-01T05:13:19;94074.47;;;-0.51;100.00
10079;BME280;5078;42.544;22.966;2023-02-01T05:16:05;94069.78;;;-0.58;100.00
10079;BME280;5078;42.544;22.966;2023-02-01T05:18:32;94084.34;;;-0.81;100.00
10079;BME280;5078;42.544;22.966;2023-02-01T05:20:59;94088.91;;;-0.85;100.00
10079;BME280;5078;42.544;22.966;2023-02-01T05:23:26;94083.50;;;-0.82;100.00
10079;BME280;5078;42.544;22.966;2023-02-01T05:25:58;94085.78;;;-0.90;100.00
10079;BME280;5078;42.544;22.966;2023-02-01T05:28:25;94073.38;;;-0.99;100.00
10079;BME280;5078;42.544;22.966;2023-02-01T05:30:51;94086.28;;;-0.85;100.00
10079;BME280;5078;42.544;22.966;2023-02-01T05:33:20;94082.47;;;-0.79;100.00
10079;BME280;5078;42.544;22.966;2023-02-01T05:35:46;94073.00;;;-0.68;100.00
10079;BME280;5078;42.544;22.966;2023-02-01T05:38:13;94073.63;;;-0.51;100.00
10079;BME280;5078;42.544;22.966;2023-02-01T05:40:40;94074.34;;;-0.36;100.00
10079;BME280;5078;42.544;22.966;2023-02-01T05:43:07;94072.16;;;-0.43;100.00
10079;BME280;5078;42.544;22.966;2023-02-01T05:45:33;94080.19;;;-0.46;100.00
10079;BME280;5078;42.544;22.966;2023-02-01T05:48:00;94079.56;;;-0.62;100.00
10079;BME280;5078;42.544;22.966;2023-02-01T05:50:28;94077.72;;;-0.47;100.00
10079;BME280;5078;42.544;22.966;2023-02-01T05:52:55;94075.19;;;-0.36;100.00
10079;BME280;5078;42.544;22.966;2023-02-01T05:55:21;94072.69;;;-0.25;100.00
10079;BME280;5078;42.544;22.966;2023-02-01T05:57:48;94072.53;;;-0.10;100.00
10079;BME280;5078;42.544;22.966;2023-02-01T06:00:16;94075.47;;;-0.02;100.00
10079;BME280;5078;42.544;22.966;2023-02-01T06:02:43;94073.59;;;-0.13;100.00
10079;BME280;5078;42.544;22.966;2023-02-01T06:05:10;94075.53;;;0.09;100.00
10079;BME280;5078;42.544;22.966;2023-02-01T06:07:38;94087.22;;;0.16;100.00
10079;BME280;5078;42.544;22.966;2023-02-01T06:10:06;94079.25;;;0.31;100.00
10079;BME280;5078;42.544;22.966;2023-02-01T06:12:33;94087.66;;;-0.15;100.00
10079;BME280;5078;42.544;22.966;2023-02-01T06:14:59;94085.19;;;-0.30;100.00
10079;BME280;5078;42.544;22.966;2023-02-01T06:17:26;94087.66;;;-0.15;100.00
10079;BME280;5078;42.544;22.966;2023-02-01T06:19:53;94093.72;;;-0.02;100.00
10079;BME280;5078;42.544;22.966;2023-02-01T06:22:19;94090.34;;;0.09;100.00
10079;BME280;5078;42.544;22.966;2023-02-01T06:24:48;94085.69;;;-0.12;100.00
10079;BME280;5078;42.544;22.966;2023-02-01T06:27:15;94093.09;;;-0.06;100.00
10079;BME280;5078;42.544;22.966;2023-02-01T06:29:41;94099.56;;;-0.11;100.00
10079;BME280;5078;42.544;22.966;2023-02-01T06:32:08;94095.63;;;-0.17;100.00
10079;BME280;5078;42.544;22.966;2023-02-01T06:34:35;94098.00;;;-0.14;100.00
10079;BME280;5078;42.544;22.966;2023-02-01T06:37:04;94102.25;;;-0.13;100.00
10079;BME280;5078;42.544;22.966;2023-02-01T06:39:31;94107.25;;;-0.23;100.00
10079;BME280;5078;42.544;22.966;2023-02-01T06:41:59;94104.16;;;-0.28;100.00
10079;BME280;5078;42.544;22.966;2023-02-01T06:44:26;94100.50;;;-0.25;100.00
10079;BME280;5078;42.544;22.966;2023-02-01T06:46:53;94100.91;;;-0.06;100.00
10079;BME280;5078;42.544;22.966;2023-02-01T06:49:20;94112.69;;;-0.26;100.00
10079;BME280;5078;42.544;22.966;2023-02-01T06:51:47;94110.72;;;-0.09;100.00
10079;BME280;5078;42.544;22.966;2023-02-01T06:54:13;94116.25;;;-0.14;100.00
10079;BME280;5078;42.544;22.966;2023-02-01T06:56:40;94113.84;;;-0.17;100.00
10079;BME280;5078;42.544;22.966;2023-02-01T06:59:10;94120.19;;;-0.08;100.00
10079;BME280;5078;42.544;22.966;2023-02-01T07:01:37;94118.94;;;-0.03;100.00
10079;BME280;5078;42.544;22.966;2023-02-01T07:04:04;94124.25;;;-0.04;100.00
10079;BME280;5078;42.544;22.966;2023-02-01T07:06:31;94137.59;;;0.04;100.00
10079;BME280;5078;42.544;22.966;2023-02-01T07:08:58;94142.94;;;0.03;100.00
10079;BME280;5078;42.544;22.966;2023-02-01T07:11:25;94148.66;;;0.08;100.00
10079;BME280;5078;42.544;22.966;2023-02-01T07:13:53;94156.88;;;0.14;100.00
10079;BME280;5078;42.544;22.966;2023-02-01T07:16:21;94154.03;;;0.17;100.00
10079;BME280;5078;42.544;22.966;2023-02-01T07:18:49;94151.63;;;0.27;100.00
10079;BME280;5078;42.544;22.966;2023-02-01T07:21:17;94146.94;;;0.45;100.00
10079;BME280;5078;42.544;22.966;2023-02-01T07:23:44;94150.09;;;0.61;100.00
10079;BME280;5078;42.544;22.966;2023-02-01T07:26:13;94148.81;;;0.67;100.00
10079;BME280;5078;42.544;22.966;2023-02-01T07:28:42;94162.47;;;0.83;99.63
10079;BME280;5078;42.544;22.966;2023-02-01T07:31:10;94178.84;;;0.85;97.33
10079;BME280;5078;42.544;22.966;2023-02-01T07:33:40;94169.41;;;0.96;97.03
10079;BME280;5078;42.544;22.966;2023-02-01T07:36:11;94159.06;;;0.94;96.06
10079;BME280;5078;42.544;22.966;2023-02-01T07:38:38;94170.84;;;1.00;94.96
10079;BME280;5078;42.544;22.966;2023-02-01T07:41:05;94158.69;;;1.12;94.64
10079;BME280;5078;42.544;22.966;2023-02-01T07:43:33;94167.97;;;0.92;93.66
10079;BME280;5078;42.544;22.966;2023-02-01T07:46:01;94166.06;;;0.94;95.30
10079;BME280;5078;42.544;22.966;2023-02-01T07:48:29;94170.50;;;1.04;97.12
10079;BME280;5078;42.544;22.966;2023-02-01T07:50:58;94165.06;;;0.83;98.94
10079;BME280;5078;42.544;22.966;2023-02-01T07:53:25;94164.13;;;1.08;100.00
10079;BME280;5078;42.544;22.966;2023-02-01T07:55:52;94165.97;;;1.19;98.72
10079;BME280;5078;42.544;22.966;2023-02-01T07:58:19;94166.41;;;1.13;96.88
10079;BME280;5078;42.544;22.966;2023-02-01T08:00:45;94179.34;;;0.91;97.09
10079;BME280;5078;42.544;22.966;2023-02-01T08:03:29;94170.47;;;0.93;96.67
10079;BME280;5078;42.544;22.966;2023-02-01T08:05:58;94191.84;;;0.98;95.88
10079;BME280;5078;42.544;22.966;2023-02-01T08:08:24;94195.56;;;0.83;97.55
10079;BME280;5078;42.544;22.966;2023-02-01T08:10:51;94202.53;;;0.95;97.42
10079;BME280;5078;42.544;22.966;2023-02-01T08:13:19;94207.00;;;0.93;96.35
10079;BME280;5078;42.544;22.966;2023-02-01T08:15:46;94201.28;;;0.88;95.73
10079;BME280;5078;42.544;22.966;2023-02-01T08:18:13;94198.19;;;1.07;95.38
10079;BME280;5078;42.544;22.966;2023-02-01T08:20:41;94201.38;;;0.86;94.64
10079;BME280;5078;42.544;22.966;2023-02-01T08:23:12;94206.88;;;1.07;92.89
10079;BME280;5078;42.544;22.966;2023-02-01T08:25:39;94205.13;;;1.19;91.64
10079;BME280;5078;42.544;22.966;2023-02-01T08:28:06;94205.03;;;1.21;91.88
10079;BME280;5078;42.544;22.966;2023-02-01T08:30:33;94203.09;;;1.36;92.15
10079;BME280;5078;42.544;22.966;2023-02-01T08:32:59;94201.06;;;1.39;91.41
10079;BME280;5078;42.544;22.966;2023-02-01T08:35:26;94206.69;;;1.46;89.72
10079;BME280;5078;42.544;22.966;2023-02-01T08:37:53;94207.75;;;1.43;88.89
10079;BME280;5078;42.544;22.966;2023-02-01T08:40:21;94203.41;;;1.55;88.64
10079;BME280;5078;42.544;22.966;2023-02-01T08:42:48;94199.56;;;1.48;89.39
10079;BME280;5078;42.544;22.966;2023-02-01T08:45:18;94195.56;;;1.55;88.21
10079;BME280;5078;42.544;22.966;2023-02-01T08:47:45;94194.19;;;1.62;87.92
10079;BME280;5078;42.544;22.966;2023-02-01T08:50:16;94179.41;;;1.50;89.55
10079;BME280;5078;42.544;22.966;2023-02-01T08:52:43;94200.66;;;1.57;90.20
10079;BME280;5078;42.544;22.966;2023-02-01T08:55:10;94195.19;;;1.60;89.36
10079;BME280;5078;42.544;22.966;2023-02-01T08:57:38;94192.25;;;1.64;88.35
10079;BME280;5078;42.544;22.966;2023-02-01T09:00:07;94188.47;;;1.68;88.86
10079;BME280;5078;42.544;22.966;2023-02-01T09:02:35;94190.13;;;1.69;88.85
10079;BME280;5078;42.544;22.966;2023-02-01T09:05:02;94186.84;;;1.79;88.20
10079;BME280;5078;42.544;22.966;2023-02-01T09:07:29;94188.53;;;1.91;88.09
10079;BME280;5078;42.544;22.966;2023-02-01T09:09:56;94157.97;;;1.80;87.49
10079;BME280;5078;42.544;22.966;2023-02-01T09:12:26;94188.44;;;2.04;86.79
10079;BME280;5078;42.544;22.966;2023-02-01T09:14:54;94190.47;;;2.00;87.18
10079;BME280;5078;42.544;22.966;2023-02-01T09:17:21;94180.84;;;2.01;86.40
10079;BME280;5078;42.544;22.966;2023-02-01T09:19:48;94190.13;;;2.05;84.66
10079;BME280;5078;42.544;22.966;2023-02-01T09:22:15;94192.00;;;2.03;84.26
10079;BME280;5078;42.544;22.966;2023-02-01T09:24:41;94196.06;;;2.29;83.38
10079;BME280;5078;42.544;22.966;2023-02-01T09:27:08;94196.69;;;2.44;82.02
10079;BME280;5078;42.544;22.966;2023-02-01T09:29:35;94191.44;;;2.44;81.57
10079;BME280;5078;42.544;22.966;2023-02-01T09:32:03;94202.16;;;2.41;82.17
10079;BME280;5078;42.544;22.966;2023-02-01T09:34:31;94193.00;;;2.58;82.60
10079;BME280;5078;42.544;22.966;2023-02-01T09:36:58;94184.31;;;2.57;82.17
10079;BME280;5078;42.544;22.966;2023-02-01T09:39:25;94185.03;;;2.71;82.20
10079;BME280;5078;42.544;22.966;2023-02-01T09:41:59;94173.13;;;2.55;82.97
10079;BME280;5078;42.544;22.966;2023-02-01T09:44:40;94170.38;;;2.34;84.41
10079;BME280;5078;42.544;22.966;2023-02-01T09:47:13;94165.16;;;2.57;84.06
10079;BME280;5078;42.544;22.966;2023-02-01T09:49:48;94167.06;;;2.66;83.13
10079;BME280;5078;42.544;22.966;2023-02-01T09:52:22;94163.63;;;2.43;84.64
10079;BME280;5078;42.544;22.966;2023-02-01T09:54:54;94163.03;;;2.62;83.95
10079;BME280;5078;42.544;22.966;2023-02-01T09:57:40;94158.22;;;2.78;82.42
10079;BME280;5078;42.544;22.966;2023-02-01T10:00:15;94166.41;;;2.96;80.99
10079;BME280;5078;42.544;22.966;2023-02-01T10:02:45;94168.69;;;2.90;82.02
10079;BME280;5078;42.544;22.966;2023-02-01T10:05:14;94169.75;;;2.98;81.28
10079;BME280;5078;42.544;22.966;2023-02-01T10:07:47;94163.03;;;3.17;79.36
10079;BME280;5078;42.544;22.966;2023-02-01T10:10:23;94155.97;;;3.29;78.52
10079;BME280;5078;42.544;22.966;2023-02-01T10:13:02;94154.88;;;3.31;77.67
10079;BME280;5078;42.544;22.966;2023-02-01T10:16:02;94154.63;;;3.34;77.77
10079;BME280;5078;42.544;22.966;2023-02-01T10:18:57;94142.56;;;3.11;78.61
10079;BME280;5078;42.544;22.966;2023-02-01T10:21:36;94145.28;;;3.20;78.90
10079;BME280;5078;42.544;22.966;2023-02-01T10:24:34;94140.25;;;3.29;78.46
10079;BME280;5078;42.544;22.966;2023-02-01T10:27:11;94143.19;;;3.03;78.77
10079;BME280;5078;42.544;22.966;2023-02-01T10:29:40;94132.72;;;2.92;80.15
10079;BME280;5078;42.544;22.966;2023-02-01T10:32:13;94125.69;;;3.36;78.22
10079;BME280;5078;42.544;22.966;2023-02-01T10:34:44;94120.78;;;3.63;77.18
10079;BME280;5078;42.544;22.966;2023-02-01T10:37:26;94119.75;;;3.97;74.73
10079;BME280;5078;42.544;22.966;2023-02-01T10:39:55;94131.16;;;3.86;72.66
10079;BME280;5078;42.544;22.966;2023-02-01T10:42:25;94126.81;;;4.58;69.58
10079;BME280;5078;42.544;22.966;2023-02-01T10:44:54;94112.41;;;5.22;63.29
10079;BME280;5078;42.544;22.966;2023-02-01T10:47:22;94112.16;;;5.34;63.32
10079;BME280;5078;42.544;22.966;2023-02-01T10:49:55;94111.03;;;5.27;62.03
10079;BME280;5078;42.544;22.966;2023-02-01T10:52:33;94105.78;;;5.27;61.83
10079;BME280;5078;42.544;22.966;2023-02-01T10:55:32;94108.50;;;4.87;61.73
10079;BME280;5078;42.544;22.966;2023-02-01T10:58:00;94102.88;;;4.51;63.39
10079;BME280;5078;42.544;22.966;2023-02-01T11:00:28;94107.59;;;4.26;63.77
10079;BME280;5078;42.544;22.966;2023-02-01T11:03:00;94110.63;;;4.22;66.11
10079;BME280;5078;42.544;22.966;2023-02-01T11:05:47;94124.13;;;4.48;63.74
10079;BME280;5078;42.544;22.966;2023-02-01T11:08:16;94118.75;;;4.19;64.35
10079;BME280;5078;42.544;22.966;2023-02-01T11:10:44;94109.13;;;3.98;64.59
10079;BME280;5078;42.544;22.966;2023-02-01T11:13:14;94105.13;;;4.25;65.21
10079;BME280;5078;42.544;22.966;2023-02-01T11:15:43;94110.28;;;4.36;64.40
10079;BME280;5078;42.544;22.966;2023-02-01T11:18:16;94096.88;;;4.39;63.80
10079;BME280;5078;42.544;22.966;2023-02-01T11:20:44;94096.63;;;4.42;63.24
10079;BME280;5078;42.544;22.966;2023-02-01T11:23:16;94098.34;;;4.63;63.25
10079;BME280;5078;42.544;22.966;2023-02-01T11:25:49;94100.41;;;4.69;61.88
10079;BME280;5078;42.544;22.966;2023-02-01T11:28:16;94091.28;;;4.63;61.59
10079;BME280;5078;42.544;22.966;2023-02-01T11:30:45;94092.28;;;4.82;60.44
10079;BME280;5078;42.544;22.966;2023-02-01T11:33:16;94094.28;;;4.89;59.19
10079;BME280;5078;42.544;22.966;2023-02-01T11:35:44;94085.28;;;5.02;57.25
10079;BME280;5078;42.544;22.966;2023-02-01T11:38:21;94074.59;;;4.84;57.41
10079;BME280;5078;42.544;22.966;2023-02-01T11:40:48;94083.75;;;4.80;58.40
10079;BME280;5078;42.544;22.966;2023-02-01T11:43:22;94085.97;;;4.44;58.06
10079;BME280;5078;42.544;22.966;2023-02-01T11:45:54;94069.47;;;4.63;58.35
10079;BME280;5078;42.544;22.966;2023-02-01T11:48:23;94062.84;;;4.78;59.01
10079;BME280;5078;42.544;22.966;2023-02-01T11:51:00;94057.06;;;5.04;57.13
10079;BME280;5078;42.544;22.966;2023-02-01T11:53:41;94046.25;;;5.55;55.86
10079;BME280;5078;42.544;22.966;2023-02-01T11:56:19;94038.06;;;5.68;55.00
10079;BME280;5078;42.544;22.966;2023-02-01T11:59:11;94037.72;;;6.10;54.10
10079;BME280;5078;42.544;22.966;2023-02-01T12:02:01;94034.00;;;6.31;53.69
10079;BME280;5078;42.544;22.966;2023-02-01T12:05:04;94024.78;;;5.70;53.70
10079;BME280;5078;42.544;22.966;2023-02-01T12:07:49;94020.00;;;5.36;55.10
10079;BME280;5078;42.544;22.966;2023-02-01T12:10:28;94014.72;;;5.46;55.78
10079;BME280;5078;42.544;22.966;2023-02-01T12:13:06;94025.91;;;5.67;54.72
10079;BME280;5078;42.544;22.966;2023-02-01T12:15:45;94013.91;;;5.26;56.19
10079;BME280;5078;42.544;22.966;2023-02-01T12:18:43;94027.47;;;4.82;56.66
10079;BME280;5078;42.544;22.966;2023-02-01T12:21:28;94023.75;;;4.94;57.84
10079;BME280;5078;42.544;22.966;2023-02-01T12:24:17;94017.94;;;5.20;56.51
10079;BME280;5078;42.544;22.966;2023-02-01T12:26:50;94020.97;;;5.35;56.14
10079;BME280;5078;42.544;22.966;2023-02-01T12:29:36;94015.41;;;5.48;55.85
10079;BME280;5078;42.544;22.966;2023-02-01T12:32:24;94024.31;;;5.27;55.59
10079;BME280;5078;42.544;22.966;2023-02-01T12:35:14;94011.28;;;5.26;56.26
10079;BME280;5078;42.544;22.966;2023-02-01T12:37:57;94020.69;;;5.38;56.00
10079;BME280;5078;42.544;22.966;2023-02-01T12:40:38;94010.28;;;5.46;55.95
10079;BME280;5078;42.544;22.966;2023-02-01T12:43:11;94026.34;;;5.53;55.59
10079;BME280;5078;42.544;22.966;2023-02-01T12:45:45;94013.63;;;5.29;56.09
10079;BME280;5078;42.544;22.966;2023-02-01T12:48:25;94018.09;;;4.89;56.38
10079;BME280;5078;42.544;22.966;2023-02-01T12:50:56;94028.03;;;5.25;56.67
10079;BME280;5078;42.544;22.966;2023-02-01T12:53:27;94024.13;;;5.58;55.24
10079;BME280;5078;42.544;22.966;2023-02-01T12:55:59;94012.50;;;5.51;54.81
10079;BME280;5078;42.544;22.966;2023-02-01T12:58:32;94021.59;;;5.56;55.34
10079;BME280;5078;42.544;22.966;2023-02-01T13:01:05;94010.88;;;5.21;55.40
10079;BME280;5078;42.544;22.966;2023-02-01T13:03:38;94018.88;;;5.29;55.76
10079;BME280;5078;42.544;22.966;2023-02-01T13:06:10;94016.94;;;5.50;55.41
10079;BME280;5078;42.544;22.966;2023-02-01T13:08:43;94005.81;;;5.66;55.45
10079;BME280;5078;42.544;22.966;2023-02-01T13:11:16;94011.41;;;5.91;55.55
10079;BME280;5078;42.544;22.966;2023-02-01T13:13:56;94004.75;;;6.06;55.01
10079;BME280;5078;42.544;22.966;2023-02-01T13:16:28;94001.06;;;5.89;53.94
10079;BME280;5078;42.544;22.966;2023-02-01T13:19:03;94000.91;;;5.91;51.40
10079;BME280;5078;42.544;22.966;2023-02-01T13:21:33;93995.75;;;5.99;50.19
10079;BME280;5078;42.544;22.966;2023-02-01T13:24:02;93992.38;;;6.16;50.12
10079;BME280;5078;42.544;22.966;2023-02-01T13:26:30;93999.88;;;6.11;49.09